sensor_id;sensor_type;location;lat;lon;timestamp;pressure;altitude;pressure_sealevel;temperature;humidity
24160;BME280;62385;41.594;23.808;2023-09-18T00:02:12;95915.25;;;16.38;85.02
24160;BME280;62385;41.594;23.808;2023-09-18T00:04:37;95909.31;;;16.43;84.82
24160;BME280;62385;41.594;23.808;2023-09-18T00:07:04;95913.56;;;16.31;84.99
24160;BME280;62385;41.594;23.808;2023-09-18T00:09:30;95917.59;;;16.20;84.41
24160;BME280;62385;41.594;23.808;2023-09-18T00:11:55;95905.34;;;16.11;85.48
24160;BME280;62385;41.594;23.808;2023-09-18T00:14:23;95895.28;;;16.13;84.89
24160;BME280;62385;41.594;23.808;2023-09-18T00:16:49;95884.75;;;16.11;84.58
24160;BME280;62385;41.594;23.808;2023-09-18T00:19:17;95889.25;;;16.04;85.13
24160;BME280;62385;41.594;23.808;2023-09-18T00:21:42;95908.72;;;16.20;85.77
24160;BME280;62385;41.594;23.808;2023-09-18T00:24:09;95909.41;;;16.28;84.22
24160;BME280;62385;41.594;23.808;2023-09-18T00:26:35;95899.19;;;16.10;84.42
24160;BME280;62385;41.594;23.808;2023-09-18T00:29:00;95893.34;;;16.00;85.47
24160;BME280;62385;41.594;23.808;2023-09-18T00:31:26;95891.41;;;15.94;85.29
24160;BME280;62385;41.594;23.808;2023-09-18T00:33:52;95894.78;;;16.03;84.95
24160;BME280;62385;41.594;23.808;2023-09-18T00:36:18;95898.69;;;16.00;85.14
24160;BME280;62385;41.594;23.808;2023-09-18T00:38:43;95906.47;;;15.95;85.35
24160;BME280;62385;41.594;23.808;2023-09-18T00:41:09;95905.50;;;16.03;84.82
24160;BME280;62385;41.594;23.808;2023-09-18T00:43:34;95909.16;;;15.95;84.94
24160;BME280;62385;41.594;23.808;2023-09-18T00:46:00;95923.19;;;15.97;85.25
24160;BME280;62385;41.594;23.808;2023-09-18T00:48:26;95922.97;;;15.99;85.56
24160;BME280;62385;41.594;23.808;2023-09-18T00:50:53;95922.31;;;16.18;85.60
24160;BME280;62385;41.594;23.808;2023-09-18T00:53:22;95914.19;;;16.05;86.30
24160;BME280;62385;41.594;23.808;2023-09-18T00:55:50;95918.88;;;16.03;86.31
24160;BME280;62385;41.594;23.808;2023-09-18T00:58:17;95926.38;;;15.86;86.48
24160;BME280;62385;41.594;23.808;2023-09-18T01:00:44;95930.22;;;15.98;86.15
24160;BME280;62385;41.594;23.808;2023-09-18T01:03:09;95935.56;;;15.98;85.58
24160;BME280;62385;41.594;23.808;2023-09-18T01:05:36;95920.69;;;15.96;85.14
24160;BME280;62385;41.594;23.808;2023-09-18T01:08:02;95920.34;;;15.78;86.28
24160;BME280;62385;41.594;23.808;2023-09-18T01:10:48;95916.25;;;15.82;85.97
24160;BME280;62385;41.594;23.808;2023-09-18T01:13:28;95921.72;;;15.95;84.65
24160;BME280;62385;41.594;23.808;2023-09-18T01:16:08;95920.56;;;15.83;85.32
24160;BME280;62385;41.594;23.808;2023-09-18T01:18:35;95908.72;;;15.70;85.90
24160;BME280;62385;41.594;23.808;2023-09-18T01:21:01;95931.09;;;15.84;84.67
24160;BME280;62385;41.594;23.808;2023-09-18T01:23:26;95920.34;;;15.78;84.82
24160;BME280;62385;41.594;23.808;2023-09-18T01:25:52;95920.56;;;15.61;85.14
24160;BME280;62385;41.594;23.808;2023-09-18T01:28:18;95922.22;;;15.84;85.63
24160;BME280;62385;41.594;23.808;2023-09-18T01:30:43;95921.84;;;15.87;85.48
24160;BME280;62385;41.594;23.808;2023-09-18T01:33:10;95931.81;;;15.72;85.15
24160;BME280;62385;41.594;23.808;2023-09-18T01:35:36;95911.75;;;15.61;84.59
24160;BME280;62385;41.594;23.808;2023-09-18T01:38:03;95930.22;;;15.77;84.33
24160;BME280;62385;41.594;23.808;2023-09-18T01:40:28;95917.66;;;15.56;85.33
24160;BME280;62385;41.594;23.808;2023-09-18T01:42:58;95915.94;;;15.70;85.45
24160;BME280;62385;41.594;23.808;2023-09-18T01:45:23;95923.50;;;15.66;85.55
24160;BME280;62385;41.594;23.808;2023-09-18T01:47:50;95923.03;;;15.56;85.80
24160;BME280;62385;41.594;23.808;2023-09-18T01:50:17;95904.38;;;15.48;85.95
24160;BME280;62385;41.594;23.808;2023-09-18T01:52:43;95908.47;;;15.44;86.44
24160;BME280;62385;41.594;23.808;2023-09-18T01:55:08;95914.22;;;15.62;86.39
24160;BME280;62385;41.594;23.808;2023-09-18T01:57:34;95894.59;;;15.55;85.69
24160;BME280;62385;41.594;23.808;2023-09-18T02:00:00;95915.75;;;15.72;85.65
24160;BME280;62385;41.594;23.808;2023-09-18T02:02:27;95913.06;;;15.72;85.07
24160;BME280;62385;41.594;23.808;2023-09-18T02:04:52;95889.50;;;15.60;85.02
24160;BME280;62385;41.594;23.808;2023-09-18T02:07:18;95879.03;;;15.65;84.69
24160;BME280;62385;41.594;23.808;2023-09-18T02:09:43;95903.09;;;15.87;84.51
24160;BME280;62385;41.594;23.808;2023-09-18T02:12:10;95900.81;;;15.62;84.14
24160;BME280;62385;41.594;23.808;2023-09-18T02:14:37;95885.81;;;15.47;85.44
24160;BME280;62385;41.594;23.808;2023-09-18T02:17:02;95899.56;;;15.58;85.80
24160;BME280;62385;41.594;23.808;2023-09-18T02:19:28;95909.19;;;15.38;85.54
24160;BME280;62385;41.594;23.808;2023-09-18T02:21:56;95904.88;;;15.37;85.13
24160;BME280;62385;41.594;23.808;2023-09-18T02:24:22;95902.63;;;15.41;85.31
24160;BME280;62385;41.594;23.808;2023-09-18T02:26:49;95911.97;;;15.66;83.67
24160;BME280;62385;41.594;23.808;2023-09-18T02:29:14;95897.13;;;15.63;83.65
24160;BME280;62385;41.594;23.808;2023-09-18T02:31:40;95908.00;;;15.19;84.86
24160;BME280;62385;41.594;23.808;2023-09-18T02:34:06;95901.84;;;15.40;84.36
24160;BME280;62385;41.594;23.808;2023-09-18T02:36:33;95897.94;;;15.43;84.47
24160;BME280;62385;41.594;23.808;2023-09-18T02:38:59;95912.06;;;15.37;84.52
24160;BME280;62385;41.594;23.808;2023-09-18T02:41:25;95915.69;;;15.29;84.81
24160;BME280;62385;41.594;23.808;2023-09-18T02:43:51;95898.81;;;15.29;85.38
24160;BME280;62385;41.594;23.808;2023-09-18T02:46:16;95899.88;;;15.13;85.04
24160;BME280;62385;41.594;23.808;2023-09-18T02:48:42;95895.69;;;15.25;84.40
24160;BME280;62385;41.594;23.808;2023-09-18T02:51:08;95900.75;;;15.20;84.32
24160;BME280;62385;41.594;23.808;2023-09-18T02:53:33;95898.63;;;15.30;84.54
24160;BME280;62385;41.594;23.808;2023-09-18T02:56:00;95903.31;;;15.28;83.95
24160;BME280;62385;41.594;23.808;2023-09-18T02:58:26;95917.28;;;15.23;84.85
24160;BME280;62385;41.594;23.808;2023-09-18T03:00:56;95915.69;;;15.29;85.04
24160;BME280;62385;41.594;23.808;2023-09-18T03:03:26;95916.72;;;15.49;83.76
24160;BME280;62385;41.594;23.808;2023-09-18T03:05:52;95897.06;;;15.21;84.05
24160;BME280;62385;41.594;23.808;2023-09-18T03:08:18;95909.50;;;15.29;84.65
24160;BME280;62385;41.594;23.808;2023-09-18T03:10:44;95929.47;;;15.47;83.93
24160;BME280;62385;41.594;23.808;2023-09-18T03:13:11;95923.53;;;15.31;85.86
24160;BME280;62385;41.594;23.808;2023-09-18T03:15:37;95923.81;;;15.21;85.44
24160;BME280;62385;41.594;23.808;2023-09-18T03:18:05;95921.19;;;15.06;85.44
24160;BME280;62385;41.594;23.808;2023-09-18T03:20:31;95940.72;;;15.21;85.14
24160;BME280;62385;41.594;23.808;2023-09-18T03:22:58;95941.03;;;15.33;83.77
24160;BME280;62385;41.594;23.808;2023-09-18T03:25:24;95936.06;;;15.30;84.50
24160;BME280;62385;41.594;23.808;2023-09-18T03:27:55;95937.28;;;15.28;84.31
24160;BME280;62385;41.594;23.808;2023-09-18T03:30:25;95940.72;;;15.21;84.56
24160;BME280;62385;41.594;23.808;2023-09-18T03:32:51;95925.72;;;15.06;84.19
24160;BME280;62385;41.594;23.808;2023-09-18T03:35:19;95936.69;;;15.11;84.58
24160;BME280;62385;41.594;23.808;2023-09-18T03:37:50;95932.53;;;15.08;84.33
24160;BME280;62385;41.594;23.808;2023-09-18T03:40:16;95935.75;;;15.04;85.33
24160;BME280;62385;41.594;23.808;2023-09-18T03:42:42;95933.84;;;14.98;85.33
24160;BME280;62385;41.594;23.808;2023-09-18T03:45:09;95909.72;;;15.12;84.32
24160;BME280;62385;41.594;23.808;2023-09-18T03:47:35;95930.41;;;15.04;84.43
24160;BME280;62385;41.594;23.808;2023-09-18T03:50:05;95915.88;;;14.92;85.17
24160;BME280;62385;41.594;23.808;2023-09-18T03:52:30;95914.84;;;14.93;84.22
24160;BME280;62385;41.594;23.808;2023-09-18T03:54:56;95925.81;;;14.83;85.39
24160;BME280;62385;41.594;23.808;2023-09-18T03:57:21;95920.06;;;14.65;84.37
24160;BME280;62385;41.594;23.808;2023-09-18T03:59:47;95920.94;;;14.87;84.48
24160;BME280;62385;41.594;23.808;2023-09-18T04:02:13;95931.34;;;14.96;84.68
24160;BME280;62385;41.594;23.808;2023-09-18T04:04:39;95915.13;;;14.83;85.06
24160;BME280;62385;41.594;23.808;2023-09-18T04:07:05;95925.94;;;14.90;84.68
24160;BME280;62385;41.594;23.808;2023-09-18T04:09:31;95914.69;;;14.79;84.89
24160;BME280;62385;41.594;23.808;2023-09-18T04:11:57;95934.97;;;14.89;84.24
24160;BME280;62385;41.594;23.808;2023-09-18T04:20:45;95891.97;;;14.40;87.49
24160;BME280;62385;41.594;23.808;2023-09-18T04:25:46;95931.00;;;14.55;85.30
24160;BME280;62385;41.594;23.808;2023-09-18T04:28:13;95915.53;;;14.51;86.33
24160;BME280;62385;41.594;23.808;2023-09-18T04:30:39;95927.41;;;14.77;85.68
24160;BME280;62385;41.594;23.808;2023-09-18T04:33:04;95932.94;;;14.91;85.50
24160;BME280;62385;41.594;23.808;2023-09-18T04:35:30;95936.78;;;14.88;83.98
24160;BME280;62385;41.594;23.808;2023-09-18T04:37:58;95925.28;;;14.88;85.32
24160;BME280;62385;41.594;23.808;2023-09-18T04:40:24;95928.09;;;15.15;84.79
24160;BME280;62385;41.594;23.808;2023-09-18T04:42:50;95926.78;;;15.26;84.91
24160;BME280;62385;41.594;23.808;2023-09-18T04:45:16;95932.22;;;15.18;84.41
24160;BME280;62385;41.594;23.808;2023-09-18T04:47:42;95933.53;;;15.07;84.25
24160;BME280;62385;41.594;23.808;2023-09-18T04:50:08;95917.03;;;15.04;84.14
24160;BME280;62385;41.594;23.808;2023-09-18T04:52:35;95910.28;;;15.08;83.98
24160;BME280;62385;41.594;23.808;2023-09-18T04:55:02;95939.13;;;15.27;83.84
24160;BME280;62385;41.594;23.808;2023-09-18T05:02:19;95909.81;;;15.19;84.67
24160;BME280;62385;41.594;23.808;2023-09-18T05:04:46;95935.84;;;15.61;84.17
24160;BME280;62385;41.594;23.808;2023-09-18T05:07:12;95916.94;;;15.48;83.83
24160;BME280;62385;41.594;23.808;2023-09-18T05:09:37;95942.78;;;15.77;82.63
24160;BME280;62385;41.594;23.808;2023-09-18T05:12:05;95936.28;;;15.86;82.78
24160;BME280;62385;41.594;23.808;2023-09-18T05:14:34;95913.81;;;15.87;83.49
24160;BME280;62385;41.594;23.808;2023-09-18T05:16:59;95938.28;;;16.05;83.01
24160;BME280;62385;41.594;23.808;2023-09-18T05:19:25;95943.09;;;16.16;83.07
24160;BME280;62385;41.594;23.808;2023-09-18T05:21:50;95940.38;;;16.09;83.37
24160;BME280;62385;41.594;23.808;2023-09-18T05:24:16;95945.56;;;15.90;83.73
24160;BME280;62385;41.594;23.808;2023-09-18T05:26:41;95936.41;;;15.78;84.71
24160;BME280;62385;41.594;23.808;2023-09-18T05:29:07;95946.91;;;15.79;84.56
24160;BME280;62385;41.594;23.808;2023-09-18T05:31:32;95951.28;;;16.08;83.49
24160;BME280;62385;41.594;23.808;2023-09-18T05:33:58;95934.09;;;15.96;84.80
24160;BME280;62385;41.594;23.808;2023-09-18T05:36:24;95946.47;;;15.97;85.23
24160;BME280;62385;41.594;23.808;2023-09-18T05:38:49;95936.72;;;15.89;85.24
24160;BME280;62385;41.594;23.808;2023-09-18T05:41:15;95931.19;;;16.19;83.67
24160;BME280;62385;41.594;23.808;2023-09-18T05:43:41;95945.47;;;16.26;83.23
24160;BME280;62385;41.594;23.808;2023-09-18T05:46:07;95943.63;;;16.26;83.39
24160;BME280;62385;41.594;23.808;2023-09-18T05:48:33;95938.00;;;16.21;83.90
24160;BME280;62385;41.594;23.808;2023-09-18T05:50:59;95953.06;;;16.50;83.56
24160;BME280;62385;41.594;23.808;2023-09-18T05:53:25;95926.91;;;16.52;82.69
24160;BME280;62385;41.594;23.808;2023-09-18T05:55:51;95960.97;;;16.58;83.05
24160;BME280;62385;41.594;23.808;2023-09-18T05:58:16;95942.09;;;16.45;82.68
24160;BME280;62385;41.594;23.808;2023-09-18T06:00:44;95946.56;;;16.59;82.56
24160;BME280;62385;41.594;23.808;2023-09-18T06:03:11;95944.81;;;16.51;83.45
24160;BME280;62385;41.594;23.808;2023-09-18T06:05:37;95956.31;;;16.73;83.11
24160;BME280;62385;41.594;23.808;2023-09-18T06:08:03;95957.53;;;16.64;84.82
24160;BME280;62385;41.594;23.808;2023-09-18T06:10:28;95951.63;;;16.82;83.60
24160;BME280;62385;41.594;23.808;2023-09-18T06:12:54;95945.91;;;16.91;82.93
24160;BME280;62385;41.594;23.808;2023-09-18T06:15:19;95931.66;;;16.91;82.52
24160;BME280;62385;41.594;23.808;2023-09-18T06:17:45;95933.94;;;16.94;82.09
24160;BME280;62385;41.594;23.808;2023-09-18T06:20:11;95952.56;;;17.02;82.83
24160;BME280;62385;41.594;23.808;2023-09-18T06:22:41;95949.38;;;17.26;82.16
24160;BME280;62385;41.594;23.808;2023-09-18T06:25:08;95958.84;;;17.22;82.00
24160;BME280;62385;41.594;23.808;2023-09-18T06:27:36;95957.56;;;17.12;82.54
24160;BME280;62385;41.594;23.808;2023-09-18T06:30:03;95955.72;;;17.19;83.25
24160;BME280;62385;41.594;23.808;2023-09-18T06:32:29;95958.44;;;17.25;82.28
24160;BME280;62385;41.594;23.808;2023-09-18T06:34:54;95944.47;;;17.43;82.87
24160;BME280;62385;41.594;23.808;2023-09-18T06:37:23;95933.00;;;17.69;80.95
24160;BME280;62385;41.594;23.808;2023-09-18T06:39:48;95949.84;;;17.43;82.46
24160;BME280;62385;41.594;23.808;2023-09-18T06:42:14;95943.69;;;17.56;81.95
24160;BME280;62385;41.594;23.808;2023-09-18T06:44:39;95931.78;;;17.78;80.93
24160;BME280;62385;41.594;23.808;2023-09-18T06:47:05;95946.47;;;18.15;80.09
24160;BME280;62385;41.594;23.808;2023-09-18T06:49:30;95931.38;;;17.87;80.31
24160;BME280;62385;41.594;23.808;2023-09-18T06:51:56;95926.84;;;18.01;80.66
24160;BME280;62385;41.594;23.808;2023-09-18T06:54:22;95936.78;;;18.20;80.33
24160;BME280;62385;41.594;23.808;2023-09-18T06:56:47;95944.41;;;18.23;81.30
24160;BME280;62385;41.594;23.808;2023-09-18T06:59:13;95923.75;;;18.17;81.17
24160;BME280;62385;41.594;23.808;2023-09-18T07:01:40;95934.69;;;18.49;79.15
24160;BME280;62385;41.594;23.808;2023-09-18T07:04:08;95936.34;;;18.36;79.75
24160;BME280;62385;41.594;23.808;2023-09-18T07:06:34;95936.38;;;18.63;76.74
24160;BME280;62385;41.594;23.808;2023-09-18T07:08:59;95935.72;;;18.61;77.83
24160;BME280;62385;41.594;23.808;2023-09-18T07:11:25;95936.97;;;18.65;78.42
24160;BME280;62385;41.594;23.808;2023-09-18T07:13:51;95932.97;;;18.94;76.70
24160;BME280;62385;41.594;23.808;2023-09-18T07:16:16;95921.41;;;18.86;77.44
24160;BME280;62385;41.594;23.808;2023-09-18T07:18:42;95932.09;;;19.06;76.83
24160;BME280;62385;41.594;23.808;2023-09-18T07:21:08;95940.41;;;19.05;74.50
24160;BME280;62385;41.594;23.808;2023-09-18T07:23:34;95928.38;;;19.07;74.97
24160;BME280;62385;41.594;23.808;2023-09-18T07:26:03;95932.56;;;18.90;76.23
24160;BME280;62385;41.594;23.808;2023-09-18T07:28:29;95947.81;;;19.16;76.19
24160;BME280;62385;41.594;23.808;2023-09-18T07:30:54;95932.72;;;19.02;75.43
24160;BME280;62385;41.594;23.808;2023-09-18T07:33:20;95941.44;;;19.04;75.65
24160;BME280;62385;41.594;23.808;2023-09-18T07:35:49;95935.38;;;19.21;74.86
24160;BME280;62385;41.594;23.808;2023-09-18T07:38:17;95925.03;;;19.12;74.71
24160;BME280;62385;41.594;23.808;2023-09-18T07:40:45;95914.53;;;19.04;74.52
24160;BME280;62385;41.594;23.808;2023-09-18T07:43:11;95939.69;;;19.22;74.45
24160;BME280;62385;41.594;23.808;2023-09-18T07:45:38;95922.69;;;19.28;75.09
24160;BME280;62385;41.594;23.808;2023-09-18T07:48:06;95918.59;;;19.64;73.22
24160;BME280;62385;41.594;23.808;2023-09-18T07:50:32;95920.78;;;19.80;73.28
24160;BME280;62385;41.594;23.808;2023-09-18T07:52:59;95937.09;;;19.92;71.08
24160;BME280;62385;41.594;23.808;2023-09-18T07:55:24;95926.63;;;20.02;70.96
24160;BME280;62385;41.594;23.808;2023-09-18T07:58:10;95924.38;;;20.30;71.22
24160;BME280;62385;41.594;23.808;2023-09-18T08:00:36;95926.44;;;20.03;70.66
24160;BME280;62385;41.594;23.808;2023-09-18T08:03:02;95927.47;;;20.02;70.40
24160;BME280;62385;41.594;23.808;2023-09-18T08:05:29;95914.56;;;20.11;68.56
24160;BME280;62385;41.594;23.808;2023-09-18T08:07:55;95912.34;;;20.33;68.17
24160;BME280;62385;41.594;23.808;2023-09-18T08:10:22;95910.88;;;20.55;69.28
24160;BME280;62385;41.594;23.808;2023-09-18T08:12:48;95914.63;;;20.54;69.41
24160;BME280;62385;41.594;23.808;2023-09-18T08:15:15;95908.53;;;20.58;69.05
24160;BME280;62385;41.594;23.808;2023-09-18T08:17:40;95895.75;;;20.72;70.35
24160;BME280;62385;41.594;23.808;2023-09-18T08:20:08;95892.84;;;20.73;69.97
24160;BME280;62385;41.594;23.808;2023-09-18T08:22:37;95893.59;;;21.17;68.16
24160;BME280;62385;41.594;23.808;2023-09-18T08:25:03;95884.66;;;20.80;67.27
24160;BME280;62385;41.594;23.808;2023-09-18T08:27:29;95885.28;;;21.18;65.22
24160;BME280;62385;41.594;23.808;2023-09-18T08:29:55;95880.13;;;21.47;65.06
24160;BME280;62385;41.594;23.808;2023-09-18T08:32:21;95861.22;;;21.47;62.61
24160;BME280;62385;41.594;23.808;2023-09-18T08:34:47;95865.56;;;21.18;66.83
24160;BME280;62385;41.594;23.808;2023-09-18T08:37:13;95865.09;;;21.21;66.23
24160;BME280;62385;41.594;23.808;2023-09-18T08:39:39;95863.97;;;21.10;64.71
24160;BME280;62385;41.594;23.808;2023-09-18T08:42:07;95863.09;;;21.46;65.18
24160;BME280;62385;41.594;23.808;2023-09-18T08:44:38;95866.22;;;21.32;64.87
24160;BME280;62385;41.594;23.808;2023-09-18T08:47:05;95863.97;;;21.58;65.64
24160;BME280;62385;41.594;23.808;2023-09-18T08:49:34;95863.53;;;21.32;66.79
24160;BME280;62385;41.594;23.808;2023-09-18T08:52:00;95857.75;;;21.28;65.90
24160;BME280;62385;41.594;23.808;2023-09-18T08:54:45;95849.03;;;21.56;65.08
24160;BME280;62385;41.594;23.808;2023-09-18T08:57:11;95846.72;;;21.30;65.04
24160;BME280;62385;41.594;23.808;2023-09-18T08:59:39;95835.50;;;21.44;64.62
24160;BME280;62385;41.594;23.808;2023-09-18T09:02:05;95845.91;;;21.71;63.82
24160;BME280;62385;41.594;23.808;2023-09-18T09:04:31;95838.25;;;21.97;62.45
24160;BME280;62385;41.594;23.808;2023-09-18T09:06:57;95844.69;;;21.96;63.64
24160;BME280;62385;41.594;23.808;2023-09-18T09:09:25;95840.13;;;22.08;61.71
24160;BME280;62385;41.594;23.808;2023-09-18T09:11:52;95835.56;;;22.55;60.55
24160;BME280;62385;41.594;23.808;2023-09-18T09:14:18;95829.31;;;22.90;57.71
24160;BME280;62385;41.594;23.808;2023-09-18T09:16:51;95824.91;;;23.00;59.42
24160;BME280;62385;41.594;23.808;2023-09-18T09:19:18;95835.88;;;22.82;62.00
24160;BME280;62385;41.594;23.808;2023-09-18T09:21:45;95831.56;;;23.21;60.03
24160;BME280;62385;41.594;23.808;2023-09-18T09:24:12;95828.78;;;23.33;60.87
24160;BME280;62385;41.594;23.808;2023-09-18T09:26:42;95821.44;;;23.17;59.96
24160;BME280;62385;41.594;23.808;2023-09-18T09:29:15;95819.63;;;23.34;59.67
24160;BME280;62385;41.594;23.808;2023-09-18T09:31:44;95833.38;;;23.32;59.07
24160;BME280;62385;41.594;23.808;2023-09-18T09:34:11;95830.69;;;22.92;60.05
24160;BME280;62385;41.594;23.808;2023-09-18T09:36:51;95827.78;;;23.22;57.76
24160;BME280;62385;41.594;23.808;2023-09-18T09:39:17;95816.13;;;23.22;58.18
24160;BME280;62385;41.594;23.808;2023-09-18T09:41:47;95808.66;;;23.00;59.59
24160;BME280;62385;41.594;23.808;2023-09-18T09:44:13;95818.06;;;23.10;59.68
24160;BME280;62385;41.594;23.808;2023-09-18T09:46:46;95810.16;;;23.65;56.73
24160;BME280;62385;41.594;23.808;2023-09-18T09:49:12;95799.28;;;23.76;57.92
24160;BME280;62385;41.594;23.808;2023-09-18T09:51:41;95804.44;;;24.11;55.06
24160;BME280;62385;41.594;23.808;2023-09-18T09:54:07;95804.53;;;24.00;54.92
24160;BME280;62385;41.594;23.808;2023-09-18T09:59:11;95807.91;;;23.45;56.60
24160;BME280;62385;41.594;23.808;2023-09-18T10:01:38;95778.56;;;23.42;54.55
24160;BME280;62385;41.594;23.808;2023-09-18T10:04:05;95786.44;;;23.27;56.46
24160;BME280;62385;41.594;23.808;2023-09-18T10:06:34;95794.84;;;23.14;58.38
24160;BME280;62385;41.594;23.808;2023-09-18T10:09:04;95793.44;;;23.68;57.41
24160;BME280;62385;41.594;23.808;2023-09-18T10:11:33;95786.78;;;24.09;55.02
24160;BME280;62385;41.594;23.808;2023-09-18T10:14:09;95772.97;;;23.60;56.33
24160;BME280;62385;41.594;23.808;2023-09-18T10:16:36;95789.59;;;23.80;54.65
24160;BME280;62385;41.594;23.808;2023-09-18T10:19:11;95792.09;;;23.54;53.53
24160;BME280;62385;41.594;23.808;2023-09-18T10:22:00;95790.28;;;23.59;53.91
24160;BME280;62385;41.594;23.808;2023-09-18T10:24:34;95784.69;;;23.21;53.84
24160;BME280;62385;41.594;23.808;2023-09-18T10:27:05;95778.06;;;23.73;54.23
24160;BME280;62385;41.594;23.808;2023-09-18T10:29:36;95771.88;;;24.11;54.53
24160;BME280;62385;41.594;23.808;2023-09-18T10:32:06;95762.81;;;24.77;49.75
24160;BME280;62385;41.594;23.808;2023-09-18T10:34:35;95759.81;;;24.57;52.54
24160;BME280;62385;41.594;23.808;2023-09-18T10:37:03;95756.06;;;25.02;49.42
24160;BME280;62385;41.594;23.808;2023-09-18T10:39:37;95753.44;;;24.68;49.98
24160;BME280;62385;41.594;23.808;2023-09-18T10:42:07;95751.28;;;24.49;51.93
24160;BME280;62385;41.594;23.808;2023-09-18T10:44:34;95758.19;;;23.84;49.85
24160;BME280;62385;41.594;23.808;2023-09-18T10:47:02;95757.47;;;23.72;52.12
24160;BME280;62385;41.594;23.808;2023-09-18T10:49:49;95755.88;;;23.60;54.27
24160;BME280;62385;41.594;23.808;2023-09-18T10:52:15;95735.75;;;24.06;53.99
24160;BME280;62385;41.594;23.808;2023-09-18T10:54:41;95746.00;;;24.04;54.55
24160;BME280;62385;41.594;23.808;2023-09-18T10:57:07;95747.91;;;23.53;56.98
24160;BME280;62385;41.594;23.808;2023-09-18T10:59:32;95724.84;;;24.39;52.38
24160;BME280;62385;41.594;23.808;2023-09-18T11:02:03;95730.03;;;24.62;52.69
24160;BME280;62385;41.594;23.808;2023-09-18T11:04:33;95732.81;;;25.11;51.97
24160;BME280;62385;41.594;23.808;2023-09-18T11:09:29;95723.38;;;25.45;50.90
24160;BME280;62385;41.594;23.808;2023-09-18T11:17:37;95720.94;;;24.52;53.64
24160;BME280;62385;41.594;23.808;2023-09-18T11:20:17;95718.97;;;24.69;50.42
24160;BME280;62385;41.594;23.808;2023-09-18T11:25:37;95715.88;;;25.31;47.80
24160;BME280;62385;41.594;23.808;2023-09-18T11:28:04;95702.63;;;24.86;52.00
24160;BME280;62385;41.594;23.808;2023-09-18T11:30:34;95712.59;;;25.55;47.91
24160;BME280;62385;41.594;23.808;2023-09-18T11:33:05;95709.00;;;25.82;48.97
24160;BME280;62385;41.594;23.808;2023-09-18T11:35:32;95686.16;;;25.19;51.19
24160;BME280;62385;41.594;23.808;2023-09-18T11:38:08;95702.44;;;25.19;51.04
24160;BME280;62385;41.594;23.808;2023-09-18T11:40:35;95703.69;;;25.33;49.54
24160;BME280;62385;41.594;23.808;2023-09-18T11:45:43;95687.78;;;25.20;48.99
24160;BME280;62385;41.594;23.808;2023-09-18T11:48:09;95682.03;;;24.90;46.58
24160;BME280;62385;41.594;23.808;2023-09-18T11:50:37;95682.50;;;25.62;47.25
24160;BME280;62385;41.594;23.808;2023-09-18T11:53:03;95664.31;;;25.67;50.48
24160;BME280;62385;41.594;23.808;2023-09-18T11:55:29;95672.44;;;25.99;46.79
24160;BME280;62385;41.594;23.808;2023-09-18T11:57:55;95681.75;;;26.08;46.67
24160;BME280;62385;41.594;23.808;2023-09-18T12:00:23;95675.72;;;26.06;48.97
24160;BME280;62385;41.594;23.808;2023-09-18T12:02:50;95659.78;;;25.46;48.47
24160;BME280;62385;41.594;23.808;2023-09-18T12:05:17;95672.09;;;25.91;47.62
24160;BME280;62385;41.594;23.808;2023-09-18T12:07:45;95656.00;;;26.26;46.65
24160;BME280;62385;41.594;23.808;2023-09-18T12:10:14;95644.84;;;25.86;47.51
24160;BME280;62385;41.594;23.808;2023-09-18T12:12:42;95666.47;;;26.49;46.06
24160;BME280;62385;41.594;23.808;2023-09-18T12:15:13;95659.03;;;25.88;46.07
24160;BME280;62385;41.594;23.808;2023-09-18T12:17:41;95656.03;;;26.31;46.54
24160;BME280;62385;41.594;23.808;2023-09-18T12:20:06;95664.00;;;26.48;47.13
24160;BME280;62385;41.594;23.808;2023-09-18T12:22:32;95651.59;;;25.78;48.71
24160;BME280;62385;41.594;23.808;2023-09-18T12:25:13;95652.06;;;26.07;47.64
24160;BME280;62385;41.594;23.808;2023-09-18T12:27:42;95656.88;;;25.95;48.91
24160;BME280;62385;41.594;23.808;2023-09-18T12:30:08;95645.25;;;26.09;49.00
24160;BME280;62385;41.594;23.808;2023-09-18T12:32:37;95660.78;;;25.08;47.46
24160;BME280;62385;41.594;23.808;2023-09-18T12:35:06;95657.66;;;24.95;48.93
24160;BME280;62385;41.594;23.808;2023-09-18T12:37:40;95657.72;;;24.78;49.06
24160;BME280;62385;41.594;23.808;2023-09-18T12:40:07;95652.50;;;24.71;48.57
24160;BME280;62385;41.594;23.808;2023-09-18T12:42:39;95644.56;;;24.43;50.70
24160;BME280;62385;41.594;23.808;2023-09-18T12:45:08;95640.47;;;25.48;48.29
24160;BME280;62385;41.594;23.808;2023-09-18T12:47:35;95637.75;;;25.80;47.90
24160;BME280;62385;41.594;23.808;2023-09-18T12:50:24;95626.16;;;25.99;45.86
24160;BME280;62385;41.594;23.808;2023-09-18T12:52:49;95641.25;;;26.17;46.75
24160;BME280;62385;41.594;23.808;2023-09-18T12:55:25;95634.69;;;25.39;46.43
24160;BME280;62385;41.594;23.808;2023-09-18T12:57:52;95626.25;;;25.72;45.81
24160;BME280;62385;41.594;23.808;2023-09-18T13:00:22;95630.16;;;25.87;41.60
24160;BME280;62385;41.594;23.808;2023-09-18T13:02:49;95627.16;;;26.25;41.54
24160;BME280;62385;41.594;23.808;2023-09-18T13:05:21;95626.63;;;25.86;44.23
24160;BME280;62385;41.594;23.808;2023-09-18T13:07:51;95621.44;;;25.80;42.28
24160;BME280;62385;41.594;23.808;2023-09-18T13:10:17;95622.97;;;25.65;46.45
24160;BME280;62385;41.594;23.808;2023-09-18T13:12:46;95617.44;;;25.23;48.12
24160;BME280;62385;41.594;23.808;2023-09-18T13:15:12;95612.56;;;26.56;43.59
24160;BME280;62385;41.594;23.808;2023-09-18T13:17:44;95621.28;;;26.63;42.97
24160;BME280;62385;41.594;23.808;2023-09-18T13:20:20;95611.59;;;26.98;42.29
24160;BME280;62385;41.594;23.808;2023-09-18T13:22:52;95617.81;;;26.78;39.86